sensor_id;sensor_type;location;lat;lon;timestamp;P1;durP1;ratioP1;P2;durP2;ratioP2
54412;SDS011;41533;51.390;0.074;2022-10-28T00:01:14;4.95;;;2.33;;
54412;SDS011;41533;51.390;0.074;2022-10-28T00:03:43;3.72;;;1.90;;
54412;SDS011;41533;51.390;0.074;2022-10-28T00:06:15;3.90;;;1.90;;
54412;SDS011;41533;51.390;0.074;2022-10-28T00:08:43;4.68;;;2.30;;
54412;SDS011;41533;51.390;0.074;2022-10-28T00:11:15;4.80;;;2.53;;
54412;SDS011;41533;51.390;0.074;2022-10-28T00:13:42;4.97;;;2.40;;
54412;SDS011;41533;51.390;0.074;2022-10-28T00:16:11;4.47;;;1.92;;
54412;SDS011;41533;51.390;0.074;2022-10-28T00:18:39;5.60;;;2.20;;
54412;SDS011;41533;51.390;0.074;2022-10-28T00:21:08;4.53;;;2.05;;
54412;SDS011;41533;51.390;0.074;2022-10-28T00:23:36;3.60;;;1.83;;
54412;SDS011;41533;51.390;0.074;2022-10-28T00:26:04;2.88;;;2.05;;
54412;SDS011;41533;51.390;0.074;2022-10-28T00:28:31;4.88;;;1.92;;
54412;SDS011;41533;51.390;0.074;2022-10-28T00:31:02;4.15;;;2.10;;
54412;SDS011;41533;51.390;0.074;2022-10-28T00:33:30;6.45;;;1.98;;
54412;SDS011;41533;51.390;0.074;2022-10-28T00:38:54;3.35;;;1.58;;
54412;SDS011;41533;51.390;0.074;2022-10-28T00:41:23;3.13;;;1.83;;
54412;SDS011;41533;51.390;0.074;2022-10-28T00:43:55;3.22;;;1.90;;
54412;SDS011;41533;51.390;0.074;2022-10-28T00:46:27;5.43;;;2.45;;
54412;SDS011;41533;51.390;0.074;2022-10-28T00:48:58;6.20;;;2.42;;
54412;SDS011;41533;51.390;0.074;2022-10-28T00:51:28;2.90;;;1.90;;
54412;SDS011;41533;51.390;0.074;2022-10-28T00:53:57;2.58;;;2.13;;
54412;SDS011;41533;51.390;0.074;2022-10-28T00:56:25;5.38;;;1.92;;
54412;SDS011;41533;51.390;0.074;2022-10-28T00:58:54;4.63;;;2.20;;
54412;SDS011;41533;51.390;0.074;2022-10-28T01:01:22;7.50;;;2.38;;
54412;SDS011;41533;51.390;0.074;2022-10-28T01:03:49;6.00;;;2.00;;
54412;SDS011;41533;51.390;0.074;2022-10-28T01:06:17;4.50;;;2.40;;
54412;SDS011;41533;51.390;0.074;2022-10-28T01:08:44;3.58;;;2.35;;
54412;SDS011;41533;51.390;0.074;2022-10-28T01:13:51;3.45;;;2.13;;
54412;SDS011;41533;51.390;0.074;2022-10-28T01:21:25;4.57;;;1.95;;
54412;SDS011;41533;51.390;0.074;2022-10-28T01:26:41;3.63;;;2.55;;
54412;SDS011;41533;51.390;0.074;2022-10-28T01:29:29;4.88;;;2.17;;
54412;SDS011;41533;51.390;0.074;2022-10-28T01:34:53;3.80;;;2.20;;
54412;SDS011;41533;51.390;0.074;2022-10-28T01:40:19;4.43;;;2.38;;
54412;SDS011;41533;51.390;0.074;2022-10-28T01:42:56;3.58;;;2.25;;
54412;SDS011;41533;51.390;0.074;2022-10-28T01:45:25;3.15;;;1.60;;
54412;SDS011;41533;51.390;0.074;2022-10-28T01:47:56;3.75;;;1.92;;
54412;SDS011;41533;51.390;0.074;2022-10-28T01:50:36;5.28;;;2.53;;
54412;SDS011;41533;51.390;0.074;2022-10-28T01:53:06;4.15;;;2.08;;
54412;SDS011;41533;51.390;0.074;2022-10-28T01:55:38;3.45;;;1.73;;
54412;SDS011;41533;51.390;0.074;2022-10-28T01:58:06;2.80;;;1.80;;
54412;SDS011;41533;51.390;0.074;2022-10-28T02:00:34;3.47;;;2.10;;
54412;SDS011;41533;51.390;0.074;2022-10-28T02:03:04;2.70;;;1.58;;
54412;SDS011;41533;51.390;0.074;2022-10-28T02:08:01;4.45;;;2.13;;
54412;SDS011;41533;51.390;0.074;2022-10-28T02:10:30;4.15;;;2.17;;
54412;SDS011;41533;51.390;0.074;2022-10-28T02:13:03;3.72;;;2.15;;
54412;SDS011;41533;51.390;0.074;2022-10-28T02:25:41;4.78;;;2.30;;
54412;SDS011;41533;51.390;0.074;2022-10-28T02:28:09;2.88;;;1.77;;
54412;SDS011;41533;51.390;0.074;2022-10-28T02:30:46;3.38;;;1.58;;
54412;SDS011;41533;51.390;0.074;2022-10-28T02:33:16;5.03;;;2.28;;
54412;SDS011;41533;51.390;0.074;2022-10-28T02:35:48;3.05;;;2.05;;
54412;SDS011;41533;51.390;0.074;2022-10-28T02:38:18;7.28;;;2.35;;
54412;SDS011;41533;51.390;0.074;2022-10-28T02:40:48;5.50;;;2.47;;
54412;SDS011;41533;51.390;0.074;2022-10-28T02:43:21;3.15;;;1.80;;
54412;SDS011;41533;51.390;0.074;2022-10-28T02:45:50;3.00;;;1.92;;
54412;SDS011;41533;51.390;0.074;2022-10-28T02:48:19;5.90;;;1.80;;
54412;SDS011;41533;51.390;0.074;2022-10-28T02:50:50;5.18;;;2.28;;
54412;SDS011;41533;51.390;0.074;2022-10-28T02:53:20;3.70;;;1.85;;
54412;SDS011;41533;51.390;0.074;2022-10-28T02:55:55;2.53;;;1.73;;
54412;SDS011;41533;51.390;0.074;2022-10-28T02:58:24;4.28;;;2.22;;
54412;SDS011;41533;51.390;0.074;2022-10-28T03:00:51;4.57;;;2.67;;
54412;SDS011;41533;51.390;0.074;2022-10-28T03:03:18;6.53;;;2.70;;
54412;SDS011;41533;51.390;0.074;2022-10-28T03:05:45;4.00;;;1.88;;
54412;SDS011;41533;51.390;0.074;2022-10-28T03:08:12;1.88;;;1.55;;
54412;SDS011;41533;51.390;0.074;2022-10-28T03:10:39;2.42;;;1.90;;
54412;SDS011;41533;51.390;0.074;2022-10-28T03:13:07;3.38;;;2.13;;
54412;SDS011;41533;51.390;0.074;2022-10-28T03:15:34;4.75;;;2.55;;
54412;SDS011;41533;51.390;0.074;2022-10-28T03:18:01;2.70;;;2.10;;
54412;SDS011;41533;51.390;0.074;2022-10-28T03:20:28;4.28;;;2.30;;
54412;SDS011;41533;51.390;0.074;2022-10-28T03:22:55;3.97;;;2.00;;
54412;SDS011;41533;51.390;0.074;2022-10-28T03:25:23;5.47;;;2.40;;
54412;SDS011;41533;51.390;0.074;2022-10-28T03:27:50;3.70;;;1.95;;
54412;SDS011;41533;51.390;0.074;2022-10-28T03:30:17;3.47;;;2.22;;
54412;SDS011;41533;51.390;0.074;2022-10-28T03:32:45;6.65;;;2.00;;
54412;SDS011;41533;51.390;0.074;2022-10-28T03:35:12;4.25;;;2.15;;
54412;SDS011;41533;51.390;0.074;2022-10-28T03:37:42;6.13;;;1.60;;
54412;SDS011;41533;51.390;0.074;2022-10-28T03:40:10;4.90;;;1.95;;
54412;SDS011;41533;51.390;0.074;2022-10-28T03:42:39;2.40;;;1.63;;
54412;SDS011;41533;51.390;0.074;2022-10-28T03:45:07;3.88;;;2.05;;
54412;SDS011;41533;51.390;0.074;2022-10-28T03:47:34;5.13;;;1.73;;
54412;SDS011;41533;51.390;0.074;2022-10-28T03:50:02;5.28;;;2.75;;
54412;SDS011;41533;51.390;0.074;2022-10-28T03:52:29;7.78;;;3.22;;
54412;SDS011;41533;51.390;0.074;2022-10-28T03:54:56;3.58;;;1.83;;
54412;SDS011;41533;51.390;0.074;2022-10-28T03:57:23;2.13;;;1.77;;
54412;SDS011;41533;51.390;0.074;2022-10-28T03:59:51;6.50;;;2.65;;
54412;SDS011;41533;51.390;0.074;2022-10-28T04:02:18;5.35;;;2.45;;
54412;SDS011;41533;51.390;0.074;2022-10-28T04:04:45;4.43;;;2.35;;
54412;SDS011;41533;51.390;0.074;2022-10-28T04:07:12;4.93;;;2.08;;
54412;SDS011;41533;51.390;0.074;2022-10-28T04:09:40;6.80;;;2.72;;
54412;SDS011;41533;51.390;0.074;2022-10-28T04:12:08;3.72;;;2.47;;
54412;SDS011;41533;51.390;0.074;2022-10-28T04:14:37;6.60;;;2.55;;
54412;SDS011;41533;51.390;0.074;2022-10-28T04:17:05;4.47;;;2.08;;
54412;SDS011;41533;51.390;0.074;2022-10-28T04:19:32;4.53;;;2.47;;
54412;SDS011;41533;51.390;0.074;2022-10-28T04:21:59;5.90;;;2.45;;
54412;SDS011;41533;51.390;0.074;2022-10-28T04:24:26;6.18;;;2.17;;
54412;SDS011;41533;51.390;0.074;2022-10-28T04:26:53;5.70;;;2.40;;
54412;SDS011;41533;51.390;0.074;2022-10-28T04:29:20;6.68;;;2.50;;
54412;SDS011;41533;51.390;0.074;2022-10-28T04:31:47;5.80;;;2.35;;
54412;SDS011;41533;51.390;0.074;2022-10-28T04:34:17;3.78;;;2.22;;
54412;SDS011;41533;51.390;0.074;2022-10-28T04:36:44;5.32;;;2.63;;
54412;SDS011;41533;51.390;0.074;2022-10-28T04:39:12;3.75;;;2.40;;
54412;SDS011;41533;51.390;0.074;2022-10-28T04:41:39;3.92;;;1.83;;
54412;SDS011;41533;51.390;0.074;2022-10-28T04:44:06;4.07;;;2.03;;
54412;SDS011;41533;51.390;0.074;2022-10-28T04:46:33;6.43;;;2.33;;
54412;SDS011;41533;51.390;0.074;2022-10-28T04:49:00;4.85;;;1.77;;
54412;SDS011;41533;51.390;0.074;2022-10-28T04:51:27;2.65;;;1.88;;
54412;SDS011;41533;51.390;0.074;2022-10-28T04:53:55;3.78;;;2.42;;
54412;SDS011;41533;51.390;0.074;2022-10-28T04:56:22;4.07;;;1.83;;
54412;SDS011;41533;51.390;0.074;2022-10-28T04:58:49;6.47;;;2.08;;
54412;SDS011;41533;51.390;0.074;2022-10-28T05:01:16;3.53;;;2.28;;
54412;SDS011;41533;51.390;0.074;2022-10-28T05:03:43;5.93;;;2.70;;
54412;SDS011;41533;51.390;0.074;2022-10-28T05:06:11;9.65;;;2.55;;
54412;SDS011;41533;51.390;0.074;2022-10-28T05:08:38;5.32;;;2.42;;
54412;SDS011;41533;51.390;0.074;2022-10-28T05:11:06;5.70;;;2.58;;
54412;SDS011;41533;51.390;0.074;2022-10-28T05:13:33;3.50;;;1.90;;
54412;SDS011;41533;51.390;0.074;2022-10-28T05:16:00;5.82;;;2.75;;
54412;SDS011;41533;51.390;0.074;2022-10-28T05:18:27;5.40;;;2.78;;
54412;SDS011;41533;51.390;0.074;2022-10-28T05:20:54;3.30;;;2.05;;
54412;SDS011;41533;51.390;0.074;2022-10-28T05:23:22;5.68;;;2.33;;
54412;SDS011;41533;51.390;0.074;2022-10-28T05:25:51;8.50;;;2.80;;
54412;SDS011;41533;51.390;0.074;2022-10-28T05:28:19;5.72;;;2.10;;
54412;SDS011;41533;51.390;0.074;2022-10-28T05:30:46;6.40;;;2.35;;
54412;SDS011;41533;51.390;0.074;2022-10-28T05:33:13;11.13;;;3.00;;
54412;SDS011;41533;51.390;0.074;2022-10-28T05:35:40;3.03;;;2.28;;
54412;SDS011;41533;51.390;0.074;2022-10-28T05:38:07;4.32;;;2.42;;
54412;SDS011;41533;51.390;0.074;2022-10-28T05:40:35;8.38;;;2.85;;
54412;SDS011;41533;51.390;0.074;2022-10-28T05:43:02;4.72;;;2.10;;
54412;SDS011;41533;51.390;0.074;2022-10-28T05:45:29;4.72;;;2.30;;
54412;SDS011;41533;51.390;0.074;2022-10-28T05:47:56;7.25;;;2.55;;
54412;SDS011;41533;51.390;0.074;2022-10-28T05:50:24;2.92;;;1.90;;
54412;SDS011;41533;51.390;0.074;2022-10-28T05:52:52;5.30;;;2.10;;
54412;SDS011;41533;51.390;0.074;2022-10-28T05:55:20;8.52;;;2.78;;
54412;SDS011;41533;51.390;0.074;2022-10-28T05:57:48;10.18;;;2.95;;
54412;SDS011;41533;51.390;0.074;2022-10-28T06:00:16;6.15;;;2.47;;
54412;SDS011;41533;51.390;0.074;2022-10-28T06:02:44;5.03;;;2.30;;
54412;SDS011;41533;51.390;0.074;2022-10-28T06:05:11;5.32;;;2.10;;
54412;SDS011;41533;51.390;0.074;2022-10-28T06:07:39;6.97;;;2.15;;
54412;SDS011;41533;51.390;0.074;2022-10-28T06:10:07;2.92;;;2.00;;
54412;SDS011;41533;51.390;0.074;2022-10-28T06:12:34;9.27;;;2.35;;
54412;SDS011;41533;51.390;0.074;2022-10-28T06:15:02;6.85;;;2.40;;
54412;SDS011;41533;51.390;0.074;2022-10-28T06:17:30;4.05;;;1.95;;
54412;SDS011;41533;51.390;0.074;2022-10-28T06:19:57;5.30;;;2.17;;
54412;SDS011;41533;51.390;0.074;2022-10-28T06:22:24;3.40;;;1.90;;
54412;SDS011;41533;51.390;0.074;2022-10-28T06:24:51;3.75;;;1.90;;
54412;SDS011;41533;51.390;0.074;2022-10-28T06:27:18;4.20;;;2.05;;
54412;SDS011;41533;51.390;0.074;2022-10-28T06:29:45;6.57;;;2.53;;
54412;SDS011;41533;51.390;0.074;2022-10-28T06:32:13;2.83;;;2.05;;
54412;SDS011;41533;51.390;0.074;2022-10-28T06:34:40;6.25;;;1.85;;
54412;SDS011;41533;51.390;0.074;2022-10-28T06:37:07;4.13;;;1.85;;
54412;SDS011;41533;51.390;0.074;2022-10-28T06:39:36;3.13;;;1.98;;
54412;SDS011;41533;51.390;0.074;2022-10-28T06:42:05;3.88;;;2.42;;
54412;SDS011;41533;51.390;0.074;2022-10-28T06:44:32;4.75;;;2.33;;
54412;SDS011;41533;51.390;0.074;2022-10-28T06:47:00;7.75;;;3.28;;
54412;SDS011;41533;51.390;0.074;2022-10-28T06:49:27;6.55;;;2.08;;
54412;SDS011;41533;51.390;0.074;2022-10-28T06:51:55;5.25;;;1.98;;
54412;SDS011;41533;51.390;0.074;2022-10-28T06:54:22;4.90;;;2.20;;
54412;SDS011;41533;51.390;0.074;2022-10-28T06:56:49;7.97;;;2.95;;
54412;SDS011;41533;51.390;0.074;2022-10-28T06:59:16;5.35;;;2.17;;
54412;SDS011;41533;51.390;0.074;2022-10-28T07:01:44;8.48;;;2.47;;
54412;SDS011;41533;51.390;0.074;2022-10-28T07:04:11;4.03;;;2.78;;
54412;SDS011;41533;51.390;0.074;2022-10-28T07:06:39;3.97;;;2.08;;
54412;SDS011;41533;51.390;0.074;2022-10-28T07:09:06;6.15;;;2.15;;
54412;SDS011;41533;51.390;0.074;2022-10-28T07:11:33;6.70;;;2.78;;
54412;SDS011;41533;51.390;0.074;2022-10-28T07:14:01;5.13;;;2.67;;
54412;SDS011;41533;51.390;0.074;2022-10-28T07:16:28;8.20;;;2.90;;
54412;SDS011;41533;51.390;0.074;2022-10-28T07:18:55;6.43;;;2.15;;
54412;SDS011;41533;51.390;0.074;2022-10-28T07:21:22;6.40;;;2.95;;
54412;SDS011;41533;51.390;0.074;2022-10-28T07:23:54;11.20;;;2.97;;
54412;SDS011;41533;51.390;0.074;2022-10-28T07:26:22;6.35;;;2.50;;
54412;SDS011;41533;51.390;0.074;2022-10-28T07:28:49;14.13;;;2.55;;
54412;SDS011;41533;51.390;0.074;2022-10-28T07:31:16;5.60;;;1.90;;
54412;SDS011;41533;51.390;0.074;2022-10-28T07:33:44;4.28;;;2.10;;
54412;SDS011;41533;51.390;0.074;2022-10-28T07:36:11;9.18;;;2.78;;
54412;SDS011;41533;51.390;0.074;2022-10-28T07:38:38;8.23;;;2.05;;
54412;SDS011;41533;51.390;0.074;2022-10-28T07:41:06;5.88;;;2.60;;
54412;SDS011;41533;51.390;0.074;2022-10-28T07:43:37;7.63;;;3.10;;
54412;SDS011;41533;51.390;0.074;2022-10-28T07:46:05;5.45;;;2.17;;
54412;SDS011;41533;51.390;0.074;2022-10-28T07:48:33;6.20;;;2.25;;
54412;SDS011;41533;51.390;0.074;2022-10-28T07:51:01;6.60;;;2.67;;
54412;SDS011;41533;51.390;0.074;2022-10-28T07:53:29;7.00;;;2.60;;
54412;SDS011;41533;51.390;0.074;2022-10-28T07:55:56;8.00;;;2.22;;
54412;SDS011;41533;51.390;0.074;2022-10-28T07:58:24;5.85;;;2.40;;
54412;SDS011;41533;51.390;0.074;2022-10-28T08:00:51;3.90;;;2.28;;
54412;SDS011;41533;51.390;0.074;2022-10-28T08:03:18;8.50;;;2.67;;
54412;SDS011;41533;51.390;0.074;2022-10-28T08:05:46;5.53;;;2.00;;
54412;SDS011;41533;51.390;0.074;2022-10-28T08:08:13;3.42;;;1.85;;
54412;SDS011;41533;51.390;0.074;2022-10-28T08:10:40;6.72;;;3.03;;
54412;SDS011;41533;51.390;0.074;2022-10-28T08:13:07;9.02;;;2.35;;
54412;SDS011;41533;51.390;0.074;2022-10-28T08:15:34;9.93;;;3.00;;
54412;SDS011;41533;51.390;0.074;2022-10-28T08:18:02;5.82;;;2.53;;
54412;SDS011;41533;51.390;0.074;2022-10-28T08:20:29;10.52;;;3.28;;
54412;SDS011;41533;51.390;0.074;2022-10-28T08:22:57;9.48;;;2.22;;
54412;SDS011;41533;51.390;0.074;2022-10-28T08:25:24;5.07;;;2.20;;
54412;SDS011;41533;51.390;0.074;2022-10-28T08:27:51;5.50;;;2.22;;
54412;SDS011;41533;51.390;0.074;2022-10-28T08:30:18;8.52;;;3.05;;
54412;SDS011;41533;51.390;0.074;2022-10-28T08:32:46;5.82;;;2.45;;
54412;SDS011;41533;51.390;0.074;2022-10-28T08:35:13;4.97;;;2.40;;
54412;SDS011;41533;51.390;0.074;2022-10-28T08:37:40;10.20;;;3.58;;
54412;SDS011;41533;51.390;0.074;2022-10-28T08:40:10;6.35;;;2.42;;
54412;SDS011;41533;51.390;0.074;2022-10-28T08:50:15;5.75;;;2.47;;
54412;SDS011;41533;51.390;0.074;2022-10-28T08:55:30;5.40;;;2.47;;
54412;SDS011;41533;51.390;0.074;2022-10-28T09:00:43;7.07;;;2.50;;
54412;SDS011;41533;51.390;0.074;2022-10-28T09:05:39;12.07;;;2.22;;
54412;SDS011;41533;51.390;0.074;2022-10-28T09:08:17;9.55;;;3.15;;
54412;SDS011;41533;51.390;0.074;2022-10-28T09:10:55;7.15;;;2.50;;
54412;SDS011;41533;51.390;0.074;2022-10-28T09:16:14;10.35;;;2.45;;
54412;SDS011;41533;51.390;0.074;2022-10-28T09:18:48;7.15;;;1.85;;
54412;SDS011;41533;51.390;0.074;2022-10-28T09:21:22;9.15;;;2.55;;
54412;SDS011;41533;51.390;0.074;2022-10-28T09:23:57;6.85;;;2.58;;
54412;SDS011;41533;51.390;0.074;2022-10-28T09:31:54;7.85;;;2.10;;
54412;SDS011;41533;51.390;0.074;2022-10-28T09:39:48;8.60;;;2.22;;
54412;SDS011;41533;51.390;0.074;2022-10-28T09:42:18;9.32;;;1.83;;
54412;SDS011;41533;51.390;0.074;2022-10-28T09:44:57;4.72;;;1.90;;
54412;SDS011;41533;51.390;0.074;2022-10-28T09:47:29;8.18;;;1.77;;
54412;SDS011;41533;51.390;0.074;2022-10-28T09:49:58;8.57;;;2.50;;
54412;SDS011;41533;51.390;0.074;2022-10-28T09:52:32;8.02;;;1.70;;
54412;SDS011;41533;51.390;0.074;2022-10-28T09:55:04;7.93;;;2.53;;
54412;SDS011;41533;51.390;0.074;2022-10-28T09:57:33;9.68;;;1.70;;
54412;SDS011;41533;51.390;0.074;2022-10-28T10:00:00;11.43;;;2.40;;
54412;SDS011;41533;51.390;0.074;2022-10-28T10:02:31;5.10;;;1.70;;
54412;SDS011;41533;51.390;0.074;2022-10-28T10:04:59;4.60;;;1.40;;
54412;SDS011;41533;51.390;0.074;2022-10-28T10:07:32;2.72;;;1.20;;
54412;SDS011;41533;51.390;0.074;2022-10-28T10:10:02;4.85;;;1.40;;
54412;SDS011;41533;51.390;0.074;2022-10-28T10:12:31;4.80;;;1.15;;
54412;SDS011;41533;51.390;0.074;2022-10-28T10:14:59;5.38;;;1.48;;
54412;SDS011;41533;51.390;0.074;2022-10-28T10:22:34;4.07;;;1.23;;
54412;SDS011;41533;51.390;0.074;2022-10-28T10:25:02;4.57;;;1.65;;
54412;SDS011;41533;51.390;0.074;2022-10-28T10:27:30;8.57;;;1.30;;
54412;SDS011;41533;51.390;0.074;2022-10-28T10:29:58;5.57;;;1.25;;
54412;SDS011;41533;51.390;0.074;2022-10-28T10:32:31;5.70;;;1.02;;
54412;SDS011;41533;51.390;0.074;2022-10-28T10:35:05;4.68;;;1.90;;
54412;SDS011;41533;51.390;0.074;2022-10-28T10:37:42;3.55;;;0.88;;
54412;SDS011;41533;51.390;0.074;2022-10-28T10:42:49;4.20;;;1.42;;
54412;SDS011;41533;51.390;0.074;2022-10-28T10:45:24;3.30;;;1.13;;
54412;SDS011;41533;51.390;0.074;2022-10-28T10:48:05;4.97;;;1.10;;
54412;SDS011;41533;51.390;0.074;2022-10-28T10:50:33;5.63;;;1.80;;
54412;SDS011;41533;51.390;0.074;2022-10-28T10:53:00;2.53;;;0.98;;
54412;SDS011;41533;51.390;0.074;2022-10-28T10:55:34;2.95;;;1.05;;
54412;SDS011;41533;51.390;0.074;2022-10-28T10:58:03;5.10;;;2.22;;
54412;SDS011;41533;51.390;0.074;2022-10-28T11:00:34;3.05;;;0.95;;
54412;SDS011;41533;51.390;0.074;2022-10-28T11:03:03;2.40;;;1.10;;
54412;SDS011;41533;51.390;0.074;2022-10-28T11:05:30;1.58;;;0.70;;
54412;SDS011;41533;51.390;0.074;2022-10-28T11:10:32;5.10;;;1.10;;
54412;SDS011;41533;51.390;0.074;2022-10-28T11:13:03;5.93;;;1.38;;
54412;SDS011;41533;51.390;0.074;2022-10-28T11:15:30;2.38;;;0.93;;
54412;SDS011;41533;51.390;0.074;2022-10-28T11:18:03;6.15;;;1.30;;
54412;SDS011;41533;51.390;0.074;2022-10-28T11:20:48;7.10;;;1.35;;
54412;SDS011;41533;51.390;0.074;2022-10-28T11:25:51;3.85;;;0.80;;
54412;SDS011;41533;51.390;0.074;2022-10-28T11:33:41;4.22;;;0.90;;
54412;SDS011;41533;51.390;0.074;2022-10-28T11:36:19;5.85;;;1.10;;
54412;SDS011;41533;51.390;0.074;2022-10-28T11:38:59;5.20;;;1.02;;
54412;SDS011;41533;51.390;0.074;2022-10-28T11:44:04;4.60;;;0.85;;
54412;SDS011;41533;51.390;0.074;2022-10-28T11:49:14;5.53;;;1.25;;
54412;SDS011;41533;51.390;0.074;2022-10-28T11:57:03;6.97;;;0.93;;
54412;SDS011;41533;51.390;0.074;2022-10-28T12:10:40;3.72;;;0.90;;
54412;SDS011;41533;51.390;0.074;2022-10-28T12:18:08;13.68;;;1.27;;
54412;SDS011;41533;51.390;0.074;2022-10-28T12:20:41;3.63;;;1.80;;
54412;SDS011;41533;51.390;0.074;2022-10-28T12:23:12;3.22;;;1.15;;
54412;SDS011;41533;51.390;0.074;2022-10-28T12:25:43;3.53;;;1.25;;
54412;SDS011;41533;51.390;0.074;2022-10-28T12:31:14;4.78;;;0.95;;
54412;SDS011;41533;51.390;0.074;2022-10-28T12:33:44;7.63;;;1.40;;
54412;SDS011;41533;51.390;0.074;2022-10-28T12:36:18;7.70;;;1.52;;
54412;SDS011;41533;51.390;0.074;2022-10-28T12:43:43;2.75;;;1.15;;
54412;SDS011;41533;51.390;0.074;2022-10-28T12:49:22;5.20;;;1.13;;
54412;SDS011;41533;51.390;0.074;2022-10-28T12:51:51;4.13;;;1.20;;
54412;SDS011;41533;51.390;0.074;2022-10-28T12:54:20;5.05;;;1.45;;
54412;SDS011;41533;51.390;0.074;2022-10-28T12:57:10;3.53;;;0.85;;
54412;SDS011;41533;51.390;0.074;2022-10-28T12:59:47;6.10;;;1.50;;
54412;SDS011;41533;51.390;0.074;2022-10-28T13:02:23;8.20;;;1.95;;
54412;SDS011;41533;51.390;0.074;2022-10-28T13:04:51;8.65;;;1.95;;
54412;SDS011;41533;51.390;0.074;2022-10-28T13:09:48;6.57;;;1.92;;
54412;SDS011;41533;51.390;0.074;2022-10-28T13:28:09;9.75;;;1.50;;
54412;SDS011;41533;51.390;0.074;2022-10-28T13:30:38;3.88;;;1.00;;
54412;SDS011;41533;51.390;0.074;2022-10-28T13:33:18;3.85;;;1.00;;
54412;SDS011;41533;51.390;0.074;2022-10-28T13:35:47;6.63;;;1.13;;
54412;SDS011;41533;51.390;0.074;2022-10-28T13:38:16;1.75;;;0.85;;
54412;SDS011;41533;51.390;0.074;2022-10-28T13:43:19;1.98;;;1.45;;
54412;SDS011;41533;51.390;0.074;2022-10-28T13:45:50;6.32;;;2.03;;
54412;SDS011;41533;51.390;0.074;2022-10-28T13:51:25;3.75;;;0.98;;
54412;SDS011;41533;51.390;0.074;2022-10-28T13:53:54;3.45;;;0.90;;
54412;SDS011;41533;51.390;0.074;2022-10-28T13:58:57;8.55;;;1.50;;
54412;SDS011;41533;51.390;0.074;2022-10-28T14:06:59;11.90;;;1.63;;
54412;SDS011;41533;51.390;0.074;2022-10-28T14:09:27;3.72;;;1.40;;
54412;SDS011;41533;51.390;0.074;2022-10-28T14:14:33;7.47;;;1.13;;
54412;SDS011;41533;51.390;0.074;2022-10-28T14:17:00;5.43;;;1.08;;
54412;SDS011;41533;51.390;0.074;2022-10-28T14:19:28;6.13;;;1.27;;
54412;SDS011;41533;51.390;0.074;2022-10-28T14:22:04;6.35;;;1.00;;
54412;SDS011;41533;51.390;0.074;2022-10-28T14:24:42;7.13;;;1.48;;
54412;SDS011;41533;51.390;0.074;2022-10-28T14:29:48;5.10;;;1.05;;
54412;SDS011;41533;51.390;0.074;2022-10-28T14:35:02;4.90;;;1.33;;
54412;SDS011;41533;51.390;0.074;2022-10-28T14:40:07;1.85;;;0.82;;
54412;SDS011;41533;51.390;0.074;2022-10-28T14:42:53;6.63;;;0.93;;
54412;SDS011;41533;51.390;0.074;2022-10-28T14:48:23;5.20;;;1.05;;
54412;SDS011;41533;51.390;0.074;2022-10-28T14:50:53;7.18;;;1.23;;
54412;SDS011;41533;51.390;0.074;2022-10-28T14:53:27;2.92;;;1.27;;
54412;SDS011;41533;51.390;0.074;2022-10-28T14:56:03;3.63;;;1.08;;
54412;SDS011;41533;51.390;0.074;2022-10-28T14:58:41;2.53;;;1.70;;
54412;SDS011;41533;51.390;0.074;2022-10-28T15:01:19;3.30;;;0.77;;
54412;SDS011;41533;51.390;0.074;2022-10-28T15:03:51;6.70;;;1.00;;
54412;SDS011;41533;51.390;0.074;2022-10-28T15:08:55;4.60;;;1.05;;
54412;SDS011;41533;51.390;0.074;2022-10-28T15:11:23;5.45;;;1.67;;
54412;SDS011;41533;51.390;0.074;2022-10-28T15:13:51;4.53;;;1.35;;
54412;SDS011;41533;51.390;0.074;2022-10-28T15:16:22;5.70;;;1.50;;
54412;SDS011;41533;51.390;0.074;2022-10-28T15:18:51;10.18;;;1.63;;
54412;SDS011;41533;51.390;0.074;2022-10-28T15:21:19;3.47;;;0.95;;
54412;SDS011;41533;51.390;0.074;2022-10-28T15:26:43;7.35;;;1.33;;
54412;SDS011;41533;51.390;0.074;2022-10-28T15:29:10;7.10;;;1.65;;
54412;SDS011;41533;51.390;0.074;2022-10-28T15:34:23;3.72;;;0.98;;
54412;SDS011;41533;51.390;0.074;2022-10-28T15:36:51;3.08;;;0.85;;
54412;SDS011;41533;51.390;0.074;2022-10-28T15:39:18;6.65;;;1.55;;
54412;SDS011;41533;51.390;0.074;2022-10-28T15:41:46;8.45;;;2.03;;
54412;SDS011;41533;51.390;0.074;2022-10-28T15:46:51;7.20;;;1.35;;
54412;SDS011;41533;51.390;0.074;2022-10-28T15:49:38;8.18;;;1.88;;
54412;SDS011;41533;51.390;0.074;2022-10-28T15:54:55;5.43;;;0.98;;
54412;SDS011;41533;51.390;0.074;2022-10-28T15:57:26;3.40;;;1.20;;
54412;SDS011;41533;51.390;0.074;2022-10-28T16:02:41;8.73;;;1.38;;
54412;SDS011;41533;51.390;0.074;2022-10-28T16:07:54;10.43;;;1.67;;
54412;SDS011;41533;51.390;0.074;2022-10-28T16:10:22;6.18;;;1.20;;
54412;SDS011;41533;51.390;0.074;2022-10-28T16:12:49;8.05;;;1.13;;
54412;SDS011;41533;51.390;0.074;2022-10-28T16:15:16;2.50;;;1.25;;
54412;SDS011;41533;51.390;0.074;2022-10-28T16:17:43;5.63;;;1.60;;
54412;SDS011;41533;51.390;0.074;2022-10-28T16:20:12;4.32;;;1.05;;
54412;SDS011;41533;51.390;0.074;2022-10-28T16:22:42;4.15;;;1.00;;
54412;SDS011;41533;51.390;0.074;2022-10-28T16:25:11;3.90;;;1.00;;
54412;SDS011;41533;51.390;0.074;2022-10-28T16:27:39;3.53;;;1.02;;
54412;SDS011;41533;51.390;0.074;2022-10-28T16:30:07;5.78;;;1.40;;
54412;SDS011;41533;51.390;0.074;2022-10-28T16:32:38;6.03;;;1.33;;
54412;SDS011;41533;51.390;0.074;2022-10-28T16:35:12;3.80;;;1.05;;
54412;SDS011;41533;51.390;0.074;2022-10-28T16:37:40;4.85;;;1.55;;
54412;SDS011;41533;51.390;0.074;2022-10-28T16:40:10;2.25;;;1.27;;
54412;SDS011;41533;51.390;0.074;2022-10-28T16:42:57;4.13;;;1.50;;
54412;SDS011;41533;51.390;0.074;2022-10-28T16:45:24;3.92;;;1.00;;
54412;SDS011;41533;51.390;0.074;2022-10-28T16:47:51;7.95;;;1.25;;
54412;SDS011;41533;51.390;0.074;2022-10-28T16:50:19;2.80;;;1.23;;
54412;SDS011;41533;51.390;0.074;2022-10-28T16:52:47;3.25;;;1.20;;
54412;SDS011;41533;51.390;0.074;2022-10-28T16:55:15;1.25;;;0.88;;
54412;SDS011;41533;51.390;0.074;2022-10-28T16:57:42;3.38;;;1.05;;
54412;SDS011;41533;51.390;0.074;2022-10-28T17:00:12;5.35;;;1.30;;
54412;SDS011;41533;51.390;0.074;2022-10-28T17:02:39;2.88;;;1.15;;
54412;SDS011;41533;51.390;0.074;2022-10-28T17:05:40;4.22;;;1.27;;
54412;SDS011;41533;51.390;0.074;2022-10-28T17:08:00;6.80;;;1.38;;
54412;SDS011;41533;51.390;0.074;2022-10-28T17:10:30;3.50;;;1.20;;
54412;SDS011;41533;51.390;0.074;2022-10-28T17:12:57;4.78;;;1.00;;
54412;SDS011;41533;51.390;0.074;2022-10-28T17:15:24;4.82;;;0.75;;
54412;SDS011;41533;51.390;0.074;2022-10-28T17:17:52;2.40;;;1.02;;
54412;SDS011;41533;51.390;0.074;2022-10-28T17:20:19;6.38;;;1.42;;
54412;SDS011;41533;51.390;0.074;2022-10-28T17:22:46;3.60;;;0.80;;
54412;SDS011;41533;51.390;0.074;2022-10-28T17:25:13;3.50;;;0.98;;
54412;SDS011;41533;51.390;0.074;2022-10-28T17:27:41;2.13;;;0.70;;
54412;SDS011;41533;51.390;0.074;2022-10-28T17:30:08;9.55;;;1.35;;
54412;SDS011;41533;51.390;0.074;2022-10-28T17:32:36;1.50;;;0.90;;
54412;SDS011;41533;51.390;0.074;2022-10-28T17:35:03;3.95;;;1.02;;
54412;SDS011;41533;51.390;0.074;2022-10-28T17:37:31;3.53;;;1.10;;
54412;SDS011;41533;51.390;0.074;2022-10-28T17:39:59;3.60;;;0.98;;
54412;SDS011;41533;51.390;0.074;2022-10-28T17:42:28;4.10;;;1.10;;
54412;SDS011;41533;51.390;0.074;2022-10-28T17:44:56;4.47;;;1.10;;
54412;SDS011;41533;51.390;0.074;2022-10-28T17:47:23;4.30;;;1.63;;
54412;SDS011;41533;51.390;0.074;2022-10-28T17:49:50;3.17;;;1.45;;
54412;SDS011;41533;51.390;0.074;2022-10-28T17:52:18;4.90;;;1.00;;
54412;SDS011;41533;51.390;0.074;2022-10-28T17:54:47;2.70;;;0.90;;
54412;SDS011;41533;51.390;0.074;2022-10-28T17:57:16;4.30;;;1.17;;
54412;SDS011;41533;51.390;0.074;2022-10-28T17:59:45;5.43;;;1.15;;
54412;SDS011;41533;51.390;0.074;2022-10-28T18:02:13;5.35;;;1.27;;